Time;durP1;ratioP1;P1;durP2;ratioP2;P2;SDS_P1;SDS_P2;PMS_P1;PMS_P2;Temp;Humidity;BMP_temperature;BMP_pressure;BME280_temperature;BME280_humidity;BME280_pressure;Samples;Min_cycle;Max_cycle;Signal;HPM_P1;HPM_P2
2022/03/14 00:00:07;;;;;;;;;;;;;;;22.49;16.43;99269.63;4999066;28;1042;-72
2022/03/14 00:02:38;;;;;;;;;;;;;;;22.66;16.17;99262.94;4998658;28;1914;-72
2022/03/14 00:05:06;;;;;;;;;;;;;;;22.86;16.24;99272.44;4980525;28;984;-72
2022/03/14 00:07:35;;;;;;;;;;;;;;;22.35;16.70;99260.03;4998793;28;941;-72
2022/03/14 00:10:02;;;;;;;;;;;;;;;22.79;16.31;99266.84;4976750;28;994;-72
2022/03/14 00:12:31;;;;;;;;;;;;;;;22.72;16.44;99266.94;4957589;29;1174;-72
2022/03/14 00:14:58;;;;;;;;;;;;;;;22.57;16.38;99265.47;4957088;29;1019;-72
2022/03/14 00:17:25;;;;;;;;;;;;;;;22.56;16.37;99263.88;4957259;29;1086;-72
2022/03/14 00:19:51;;;;;;;;;;;;;;;22.70;16.32;99269.41;4957246;29;1056;-72
2022/03/14 00:22:19;;;;;;;;;;;;;;;22.31;16.66;99261.28;4925339;29;1927;-72
2022/03/14 00:24:45;;;;;;;;;;;;;;;22.06;16.66;99269.97;4957234;29;999;-72
2022/03/14 00:27:10;;;;;;;;;;;;;;;22.41;16.44;99268.06;4957362;29;958;-72
2022/03/14 00:29:36;;;;;;;;;;;;;;;22.49;16.38;99266.78;4956740;29;1863;-73
2022/03/14 00:32:01;;;;;;;;;;;;;;;22.72;16.45;99272.59;4957154;29;1078;-72
2022/03/14 00:34:27;;;;;;;;;;;;;;;22.40;16.71;99270.09;4957300;29;1061;-72
2022/03/14 00:36:53;;;;;;;;;;;;;;;22.83;16.43;99267.59;4957058;29;1041;-72
2022/03/14 00:39:19;;;;;;;;;;;;;;;22.71;16.11;99271.00;4956880;29;1059;-72
2022/03/14 00:41:44;;;;;;;;;;;;;;;22.60;16.21;99282.47;4987941;28;1995;-72
2022/03/14 00:44:12;;;;;;;;;;;;;;;23.07;16.09;99273.44;4997250;28;1121;-72
2022/03/14 00:46:38;;;;;;;;;;;;;;;22.57;16.35;99282.50;4997819;28;894;-72
2022/03/14 00:49:03;;;;;;;;;;;;;;;22.28;16.64;99291.28;4998023;28;1077;-72
2022/03/14 00:51:28;;;;;;;;;;;;;;;22.94;16.06;99283.75;4997091;28;943;-72
2022/03/14 00:53:54;;;;;;;;;;;;;;;22.41;16.53;99297.25;4998061;28;948;-72
2022/03/14 00:56:20;;;;;;;;;;;;;;;22.76;15.96;99278.25;4997556;28;1077;-72
2022/03/14 00:58:46;;;;;;;;;;;;;;;22.68;16.43;99277.50;4997277;28;890;-72
2022/03/14 01:01:12;;;;;;;;;;;;;;;22.67;16.13;99289.28;4997931;28;1906;-72
2022/03/14 01:03:38;;;;;;;;;;;;;;;23.12;16.04;99295.69;4997565;28;1039;-72
2022/03/14 01:06:04;;;;;;;;;;;;;;;22.65;16.38;99289.72;4997688;28;928;-72
2022/03/14 01:08:29;;;;;;;;;;;;;;;22.57;16.48;99293.84;4978899;28;967;-73
2022/03/14 01:10:55;;;;;;;;;;;;;;;22.82;16.28;99288.72;4997782;28;940;-72
2022/03/14 01:13:20;;;;;;;;;;;;;;;22.41;16.50;99307.78;4997236;28;904;-72
2022/03/14 01:15:47;;;;;;;;;;;;;;;22.75;16.42;99288.00;4997768;28;913;-72
2022/03/14 01:18:13;;;;;;;;;;;;;;;22.83;16.08;99300.84;4997379;28;936;-72
2022/03/14 01:20:39;;;;;;;;;;;;;;;22.90;15.96;99300.00;4975374;28;1075;-72
2022/03/14 01:23:04;;;;;;;;;;;;;;;22.61;16.38;99300.28;4975502;28;1910;-72
2022/03/14 01:25:30;;;;;;;;;;;;;;;22.87;16.20;99302.44;4975547;28;1015;-72
2022/03/14 01:27:55;;;;;;;;;;;;;;;22.47;16.35;99306.09;4959412;28;987;-72
2022/03/14 01:30:21;;;;;;;;;;;;;;;22.73;16.42;99296.91;4975691;28;937;-72
2022/03/14 01:32:46;;;;;;;;;;;;;;;22.84;15.94;99296.78;4975593;28;957;-72
2022/03/14 01:35:12;;;;;;;;;;;;;;;22.33;16.54;99301.38;4975302;28;988;-72
2022/03/14 01:37:37;;;;;;;;;;;;;;;22.94;16.28;99312.13;4975446;28;982;-72
2022/03/14 01:40:04;;;;;;;;;;;;;;;22.77;16.13;99309.03;4975398;28;968;-72
2022/03/14 01:42:30;;;;;;;;;;;;;;;22.40;16.32;99317.50;4975159;28;1976;-72
2022/03/14 01:44:55;;;;;;;;;;;;;;;22.80;16.29;99307.41;4975388;28;975;-72
2022/03/14 01:47:20;;;;;;;;;;;;;;;23.05;15.93;99318.47;4975339;28;990;-72
2022/03/14 01:49:46;;;;;;;;;;;;;;;22.66;16.37;99325.38;4975333;28;981;-72
2022/03/14 01:52:13;;;;;;;;;;;;;;;22.50;16.29;99327.97;4990877;28;1014;-72
2022/03/14 01:54:38;;;;;;;;;;;;;;;22.31;16.46;99332.97;4996613;28;944;-72
2022/03/14 01:57:04;;;;;;;;;;;;;;;22.77;16.08;99326.06;4996695;28;1178;-72
2022/03/14 01:59:30;;;;;;;;;;;;;;;22.61;16.12;99334.34;4996850;28;871;-72
2022/03/14 02:02:10;;;;;;;;;;;;;;;22.95;15.84;99330.75;4995908;28;1914;-72
2022/03/14 02:04:36;;;;;;;;;;;;;;;22.97;15.94;99328.31;4978679;28;1008;-72
2022/03/14 02:07:03;;;;;;;;;;;;;;;22.94;15.94;99340.50;4996639;28;1358;-72
2022/03/14 02:09:29;;;;;;;;;;;;;;;22.45;16.48;99348.25;4995434;28;918;-72
2022/03/14 02:11:55;;;;;;;;;;;;;;;22.86;16.13;99343.41;4996955;28;908;-72
2022/03/14 02:14:20;;;;;;;;;;;;;;;22.93;16.07;99338.91;4978373;28;1206;-72
2022/03/14 02:16:46;;;;;;;;;;;;;;;23.08;15.96;99346.03;4997085;28;921;-72
2022/03/14 02:19:11;;;;;;;;;;;;;;;22.15;16.84;99348.91;4978401;28;1017;-72
2022/03/14 02:21:38;;;;;;;;;;;;;;;22.66;16.55;99353.72;4996510;28;1974;-72
2022/03/14 02:24:04;;;;;;;;;;;;;;;22.90;16.10;99339.72;4996522;28;964;-72
2022/03/14 02:26:41;;;;;;;;;;;;;;;22.52;16.44;99348.19;4996330;28;990;-72
2022/03/14 02:29:06;;;;;;;;;;;;;;;21.97;16.86;99346.19;4996259;28;922;-72
2022/03/14 02:31:36;;;;;;;;;;;;;;;22.24;16.72;99358.56;4996424;28;932;-72
2022/03/14 02:34:02;;;;;;;;;;;;;;;22.22;16.59;99358.16;4996448;28;1021;-72
2022/03/14 02:36:28;;;;;;;;;;;;;;;22.55;16.22;99361.53;4996085;28;1015;-72
2022/03/14 02:38:53;;;;;;;;;;;;;;;22.80;16.13;99358.47;4996081;28;1008;-72
2022/03/14 02:41:18;;;;;;;;;;;;;;;22.30;16.39;99358.91;4996160;28;1989;-72
2022/03/14 02:43:44;;;;;;;;;;;;;;;22.75;16.36;99364.59;4995497;28;1089;-72
2022/03/14 02:46:10;;;;;;;;;;;;;;;22.39;16.27;99361.28;4996077;28;1087;-72
2022/03/14 02:48:38;;;;;;;;;;;;;;;22.72;16.19;99366.25;4996174;28;982;-72
2022/03/14 02:51:04;;;;;;;;;;;;;;;22.75;16.25;99365.41;4996077;28;1003;-72
2022/03/14 02:53:29;;;;;;;;;;;;;;;22.71;16.31;99373.16;4977521;28;965;-72
2022/03/14 02:55:55;;;;;;;;;;;;;;;22.80;15.99;99372.66;4996159;28;937;-72
2022/03/14 02:58:21;;;;;;;;;;;;;;;22.82;15.75;99375.88;4996003;28;1024;-72
2022/03/14 03:00:46;;;;;;;;;;;;;;;22.30;16.60;99371.06;4995821;28;888;-72
2022/03/14 03:03:12;;;;;;;;;;;;;;;22.23;16.81;99388.13;4995831;28;1910;-72
2022/03/14 03:05:43;;;;;;;;;;;;;;;22.49;16.48;99385.91;4996077;28;965;-72
2022/03/14 03:08:09;;;;;;;;;;;;;;;22.95;15.87;99387.53;4995813;28;1001;-72
2022/03/14 03:10:34;;;;;;;;;;;;;;;22.77;16.29;99382.00;4996086;28;958;-72
2022/03/14 03:13:00;;;;;;;;;;;;;;;22.86;15.88;99382.31;4995714;28;954;-72
2022/03/14 03:15:26;;;;;;;;;;;;;;;22.63;16.29;99382.94;4999127;28;868;-72
2022/03/14 03:17:52;;;;;;;;;;;;;;;22.80;15.96;99384.81;4980957;28;997;-72
2022/03/14 03:20:17;;;;;;;;;;;;;;;22.54;16.47;99385.47;4999518;28;914;-72
2022/03/14 03:22:43;;;;;;;;;;;;;;;22.55;16.47;99384.25;4999232;28;1993;-72
2022/03/14 03:25:08;;;;;;;;;;;;;;;22.58;16.40;99386.22;4999152;28;943;-72
2022/03/14 03:27:34;;;;;;;;;;;;;;;22.43;16.61;99393.22;4999158;28;895;-72
2022/03/14 03:29:59;;;;;;;;;;;;;;;22.74;16.11;99389.34;4999094;28;960;-72
2022/03/14 03:32:25;;;;;;;;;;;;;;;22.53;16.55;99386.66;4999107;28;952;-72
2022/03/14 03:34:50;;;;;;;;;;;;;;;22.73;15.98;99393.38;4999014;28;973;-72
2022/03/14 03:37:16;;;;;;;;;;;;;;;22.03;16.78;99398.38;4999437;28;972;-73
2022/03/14 03:39:41;;;;;;;;;;;;;;;22.59;16.49;99399.19;4999171;28;930;-72
2022/03/14 03:42:07;;;;;;;;;;;;;;;22.47;16.48;99389.16;4998801;28;1991;-71
2022/03/14 03:44:34;;;;;;;;;;;;;;;22.75;16.06;99401.50;4999001;28;906;-72
2022/03/14 03:47:00;;;;;;;;;;;;;;;22.58;16.43;99404.03;4999075;28;1042;-72
2022/03/14 03:49:26;;;;;;;;;;;;;;;22.73;16.25;99399.06;4998982;28;950;-72
2022/03/14 03:51:51;;;;;;;;;;;;;;;22.81;16.24;99411.97;4998670;28;903;-72
2022/03/14 03:54:17;;;;;;;;;;;;;;;22.96;16.20;99411.88;4998954;28;997;-72
2022/03/14 03:56:44;;;;;;;;;;;;;;;22.84;15.95;99416.78;4998604;28;915;-72
2022/03/14 03:59:09;;;;;;;;;;;;;;;22.49;16.38;99417.13;4998902;28;989;-72
2022/03/14 04:01:35;;;;;;;;;;;;;;;22.12;16.95;99418.56;4998452;28;1914;-72
2022/03/14 04:04:01;;;;;;;;;;;;;;;22.61;16.45;99425.91;4998330;28;952;-72
2022/03/14 04:06:28;;;;;;;;;;;;;;;22.67;16.29;99419.78;4998906;28;970;-72
2022/03/14 04:08:54;;;;;;;;;;;;;;;22.74;16.40;99422.56;4976601;28;1002;-73
2022/03/14 04:11:20;;;;;;;;;;;;;;;22.55;16.34;99421.13;4976552;28;1111;-72
2022/03/14 04:13:46;;;;;;;;;;;;;;;22.36;16.69;99426.09;4976580;28;981;-72
2022/03/14 04:16:17;;;;;;;;;;;;;;;22.52;16.42;99431.25;4976684;28;999;-72
2022/03/14 04:18:46;;;;;;;;;;;;;;;22.47;16.56;99430.88;4976497;28;1004;-72
2022/03/14 04:21:13;;;;;;;;;;;;;;;22.63;16.58;99436.84;4976213;28;2027;-72
2022/03/14 04:23:38;;;;;;;;;;;;;;;22.48;16.76;99435.34;4976269;28;1006;-72
2022/03/14 04:26:04;;;;;;;;;;;;;;;22.20;16.61;99434.31;4975667;28;1055;-72
2022/03/14 04:28:29;;;;;;;;;;;;;;;22.39;16.79;99432.19;4976384;28;1009;-72
2022/03/14 04:30:55;;;;;;;;;;;;;;;22.83;16.35;99432.22;4976417;28;1077;-72
2022/03/14 04:33:20;;;;;;;;;;;;;;;22.46;16.50;99440.63;4974068;28;1895;-73
2022/03/14 04:35:48;;;;;;;;;;;;;;;22.43;16.48;99438.63;4967234;28;1653;-72
2022/03/14 04:38:13;;;;;;;;;;;;;;;22.58;16.41;99437.28;4965513;28;1564;-73
2022/03/14 04:40:39;;;;;;;;;;;;;;;22.47;16.36;99431.69;4983925;28;1547;-73
2022/03/14 04:43:05;;;;;;;;;;;;;;;22.87;16.49;99437.84;4966404;28;1981;-72
2022/03/14 04:45:31;;;;;;;;;;;;;;;22.48;16.52;99438.16;4964921;28;1614;-73
2022/03/14 04:47:56;;;;;;;;;;;;;;;22.54;16.57;99436.53;4966150;28;1566;-72
2022/03/14 04:50:22;;;;;;;;;;;;;;;22.74;16.46;99445.25;4961539;28;1510;-73
2022/03/14 04:52:47;;;;;;;;;;;;;;;22.92;16.10;99450.81;4956376;29;888;-72
2022/03/14 04:55:12;;;;;;;;;;;;;;;22.69;16.53;99451.38;4956263;29;956;-73
2022/03/14 04:57:39;;;;;;;;;;;;;;;22.71;16.29;99452.59;4956071;29;1744;-73
2022/03/14 05:00:08;;;;;;;;;;;;;;;22.87;15.94;99455.69;4956584;29;1095;-73
2022/03/14 05:02:33;;;;;;;;;;;;;;;22.46;16.45;99452.78;4956691;29;1979;-73
2022/03/14 05:04:59;;;;;;;;;;;;;;;22.73;16.44;99461.47;4956404;29;1023;-73
2022/03/14 05:07:25;;;;;;;;;;;;;;;22.79;16.42;99468.31;4939831;29;1034;-73
2022/03/14 05:09:50;;;;;;;;;;;;;;;22.85;16.24;99475.19;4955949;29;1019;-73
2022/03/14 05:12:16;;;;;;;;;;;;;;;22.25;16.72;99476.41;4955866;29;1119;-73
2022/03/14 05:14:41;;;;;;;;;;;;;;;22.41;16.85;99487.25;4972053;28;1059;-73
2022/03/14 05:17:07;;;;;;;;;;;;;;;22.67;16.32;99490.72;4977925;28;981;-73
2022/03/14 05:19:34;;;;;;;;;;;;;;;22.77;16.54;99493.47;4977862;28;967;-73
2022/03/14 05:22:00;;;;;;;;;;;;;;;22.45;16.61;99495.75;4977532;28;1975;-72
2022/03/14 05:24:26;;;;;;;;;;;;;;;22.62;16.60;99494.81;4977168;28;1100;-73
2022/03/14 05:26:52;;;;;;;;;;;;;;;22.47;16.62;99496.13;4977207;28;1100;-73
2022/03/14 05:29:18;;;;;;;;;;;;;;;22.29;16.80;99488.53;4977160;28;1003;-73
2022/03/14 05:31:44;;;;;;;;;;;;;;;22.88;16.29;99502.75;4977459;28;882;-73
2022/03/14 05:34:09;;;;;;;;;;;;;;;22.65;16.52;99507.38;4977547;28;999;-73
2022/03/14 05:36:35;;;;;;;;;;;;;;;22.49;16.71;99502.22;4977287;28;954;-73
2022/03/14 05:39:01;;;;;;;;;;;;;;;22.35;16.85;99501.06;4977684;28;976;-72
2022/03/14 05:41:26;;;;;;;;;;;;;;;22.67;16.63;99502.88;4976970;28;1950;-72
2022/03/14 05:43:52;;;;;;;;;;;;;;;22.62;16.27;99506.16;4977574;28;928;-73
2022/03/14 05:46:17;;;;;;;;;;;;;;;22.17;16.86;99506.00;4955118;29;1111;-73
2022/03/14 05:48:43;;;;;;;;;;;;;;;22.48;16.43;99515.56;4955560;29;955;-73
2022/03/14 05:51:08;;;;;;;;;;;;;;;22.61;16.51;99510.22;4955517;29;1070;-73
2022/03/14 05:53:34;;;;;;;;;;;;;;;22.69;16.75;99508.13;4956032;29;939;-72
2022/03/14 05:56:00;;;;;;;;;;;;;;;22.65;16.59;99515.88;4955357;29;1017;-73
2022/03/14 05:58:25;;;;;;;;;;;;;;;22.63;16.38;99519.09;4936286;29;1004;-73
2022/03/14 06:00:52;;;;;;;;;;;;;;;22.48;16.50;99518.41;4936270;29;1213;-73
2022/03/14 06:03:20;;;;;;;;;;;;;;;22.24;17.08;99525.84;4904795;29;1936;-73
2022/03/14 06:05:47;;;;;;;;;;;;;;;22.59;16.54;99524.84;4936374;29;1042;-73
2022/03/14 06:08:13;;;;;;;;;;;;;;;22.40;16.83;99539.53;4936258;29;1101;-73
2022/03/14 06:10:46;;;;;;;;;;;;;;;22.85;16.35;99531.13;4936252;29;923;-73
2022/03/14 06:13:14;;;;;;;;;;;;;;;22.58;16.79;99528.88;4935899;29;1083;-73
2022/03/14 06:15:40;;;;;;;;;;;;;;;22.25;17.02;99532.31;4935604;29;948;-72
2022/03/14 06:18:05;;;;;;;;;;;;;;;22.54;16.79;99538.66;4968160;28;1043;-73
2022/03/14 06:20:31;;;;;;;;;;;;;;;22.63;16.54;99534.09;4973969;28;940;-73
2022/03/14 06:22:57;;;;;;;;;;;;;;;22.33;17.03;99534.72;4974610;28;1910;-73
2022/03/14 06:25:22;;;;;;;;;;;;;;;22.63;16.54;99550.31;4941881;28;1083;-72
2022/03/14 06:27:50;;;;;;;;;;;;;;;22.63;16.70;99550.31;4973868;28;1077;-67
2022/03/14 06:30:15;;;;;;;;;;;;;;;23.04;16.76;99552.50;4977293;28;2044;-69
2022/03/14 06:32:41;;;;;;;;;;;;;;;23.23;16.08;99557.63;4983734;28;1790;-68
2022/03/14 06:35:07;;;;;;;;;;;;;;;24.10;15.34;99547.00;4984243;28;1869;-69
2022/03/14 06:37:33;;;;;;;;;;;;;;;23.94;15.79;99561.00;4989739;28;1837;-70
2022/03/14 06:39:59;;;;;;;;;;;;;;;24.03;15.75;99564.13;4990564;28;1775;-65
2022/03/14 06:42:25;;;;;;;;;;;;;;;24.03;15.75;99569.81;4988366;28;1906;-69
2022/03/14 06:44:50;;;;;;;;;;;;;;;23.76;15.66;99576.22;4987931;28;1561;-68
2022/03/14 06:47:18;;;;;;;;;;;;;;;23.22;16.48;99570.22;4984292;28;1328;-70
2022/03/14 06:49:44;;;;;;;;;;;;;;;22.97;16.79;99578.13;4993216;28;1742;-68
2022/03/14 06:52:12;;;;;;;;;;;;;;;22.77;17.31;99563.63;4995028;28;1987;-72
2022/03/14 06:54:39;;;;;;;;;;;;;;;23.31;16.65;99575.38;4994305;28;2214;-70
2022/03/14 06:57:06;;;;;;;;;;;;;;;23.26;16.42;99576.66;4994124;28;1470;-68
2022/03/14 06:59:32;;;;;;;;;;;;;;;23.58;16.30;99581.25;4985511;28;1506;-70
2022/03/14 07:01:57;;;;;;;;;;;;;;;23.38;16.96;99575.34;4988029;28;1911;-68
2022/03/14 07:04:23;;;;;;;;;;;;;;;23.24;16.77;99581.94;4993358;28;1334;-68
2022/03/14 07:06:48;;;;;;;;;;;;;;;22.85;17.13;99577.34;4980054;28;1049;-68
2022/03/14 07:09:14;;;;;;;;;;;;;;;23.14;17.55;99582.84;4985401;28;962;-71
2022/03/14 07:11:39;;;;;;;;;;;;;;;23.39;17.06;99583.44;4979375;28;1039;-66
2022/03/14 07:14:05;;;;;;;;;;;;;;;23.78;17.02;99590.03;4979498;28;1214;-71
2022/03/14 07:16:30;;;;;;;;;;;;;;;23.72;17.07;99589.66;4993589;28;1027;-69
2022/03/14 07:18:56;;;;;;;;;;;;;;;23.75;17.25;99594.50;4979199;28;1042;-68
2022/03/14 07:21:28;;;;;;;;;;;;;;;23.76;17.06;99601.78;4979026;28;1910;-71
2022/03/14 07:23:54;;;;;;;;;;;;;;;23.95;16.77;99600.38;4978730;28;1238;-72
2022/03/14 07:26:20;;;;;;;;;;;;;;;23.52;17.44;99597.13;4979598;28;988;-70
2022/03/14 07:28:47;;;;;;;;;;;;;;;23.89;17.06;99611.41;4979083;28;1260;-74
2022/03/14 07:31:18;;;;;;;;;;;;;;;24.08;17.13;99603.47;4979402;28;909;-69
2022/03/14 07:33:44;;;;;;;;;;;;;;;23.53;17.17;99607.28;4980811;28;2037;-66
2022/03/14 07:36:10;;;;;;;;;;;;;;;23.67;17.16;99614.88;4970410;28;1118;-70
2022/03/14 07:38:38;;;;;;;;;;;;;;;24.03;16.93;99609.63;4987449;28;1951;-63
2022/03/14 07:41:03;;;;;;;;;;;;;;;23.66;17.33;99614.06;4977684;28;1172;-67
2022/03/14 07:43:28;;;;;;;;;;;;;;;23.63;17.43;99617.78;4978577;28;1977;-64
2022/03/14 07:45:54;;;;;;;;;;;;;;;23.13;17.80;99609.63;4978161;28;1003;-66
2022/03/14 07:48:20;;;;;;;;;;;;;;;23.37;17.48;99614.31;4991464;28;935;-71
2022/03/14 07:50:45;;;;;;;;;;;;;;;22.91;17.93;99620.31;4975911;28;1041;-72
2022/03/14 07:53:11;;;;;;;;;;;;;;;22.63;18.10;99609.91;4975938;28;1034;-72
2022/03/14 07:55:36;;;;;;;;;;;;;;;22.14;18.43;99622.28;4975905;28;1134;-72
2022/03/14 07:58:01;;;;;;;;;;;;;;;22.63;17.92;99622.06;4975972;28;964;-72
2022/03/14 08:00:27;;;;;;;;;;;;;;;22.44;18.13;99610.44;4974826;28;1097;-68
2022/03/14 08:02:52;;;;;;;;;;;;;;;22.33;18.23;99619.78;4975856;28;1894;-68
2022/03/14 08:05:19;;;;;;;;;;;;;;;22.11;18.40;99621.06;4976323;28;1114;-68
2022/03/14 08:07:46;;;;;;;;;;;;;;;22.46;17.68;99625.00;4975977;28;1110;-68
2022/03/14 08:10:12;;;;;;;;;;;;;;;22.44;17.58;99631.09;4976101;28;1052;-68
2022/03/14 08:12:57;;;;;;;;;;;;;;;22.54;17.74;99630.22;4976067;28;1022;-68
2022/03/14 08:15:22;;;;;;;;;;;;;;;22.49;17.80;99632.69;4975695;28;1123;-68
2022/03/14 08:17:48;;;;;;;;;;;;;;;22.45;17.69;99626.22;4975460;28;1088;-68
2022/03/14 08:20:13;;;;;;;;;;;;;;;22.23;17.93;99631.97;4975528;28;922;-69
2022/03/14 08:22:39;;;;;;;;;;;;;;;21.98;17.87;99620.66;4990828;28;1894;-68
2022/03/14 08:25:05;;;;;;;;;;;;;;;22.24;17.91;99630.75;4997497;28;910;-68
2022/03/14 08:27:30;;;;;;;;;;;;;;;22.38;17.81;99637.56;4997426;28;1066;-68
2022/03/14 08:29:55;;;;;;;;;;;;;;;22.51;17.63;99636.72;4997044;28;1004;-69
2022/03/14 08:32:21;;;;;;;;;;;;;;;22.35;17.54;99634.34;4996718;28;1049;-68
2022/03/14 08:34:47;;;;;;;;;;;;;;;22.53;17.57;99634.25;4994387;28;1063;-68
2022/03/14 08:37:12;;;;;;;;;;;;;;;22.31;17.71;99635.56;4994674;28;1052;-68
2022/03/14 08:39:38;;;;;;;;;;;;;;;22.18;17.81;99640.91;4994782;28;910;-68
2022/03/14 08:42:04;;;;;;;;;;;;;;;22.44;17.60;99641.63;4994752;28;1914;-68
2022/03/14 08:44:29;;;;;;;;;;;;;;;22.12;18.00;99642.50;4994799;28;1192;-68
2022/03/14 08:46:55;;;;;;;;;;;;;;;22.26;18.05;99642.47;4994569;28;1014;-68
2022/03/14 08:49:20;;;;;;;;;;;;;;;22.21;17.89;99640.06;4994584;28;1048;-68
2022/03/14 08:51:46;;;;;;;;;;;;;;;21.98;18.21;99634.84;4994586;28;1149;-69
2022/03/14 08:54:11;;;;;;;;;;;;;;;22.21;18.09;99645.72;4994655;28;1158;-69
2022/03/14 08:56:37;;;;;;;;;;;;;;;22.11;18.23;99638.06;4994518;28;1183;-68
2022/03/14 08:59:04;;;;;;;;;;;;;;;22.35;17.95;99651.38;4994637;28;1004;-69
2022/03/14 09:01:30;;;;;;;;;;;;;;;22.06;18.19;99641.28;4994149;28;1975;-69
2022/03/14 09:03:55;;;;;;;;;;;;;;;22.20;18.21;99644.13;4977726;28;992;-70
2022/03/14 09:06:21;;;;;;;;;;;;;;;21.96;18.32;99639.28;4995703;28;1017;-68
2022/03/14 09:08:46;;;;;;;;;;;;;;;22.60;17.91;99639.13;4997013;28;985;-69
2022/03/14 09:11:12;;;;;;;;;;;;;;;22.02;18.42;99643.31;4996192;28;1006;-70
2022/03/14 09:13:38;;;;;;;;;;;;;;;21.84;18.67;99638.50;4996375;28;1156;-71
2022/03/14 09:16:04;;;;;;;;;;;;;;;21.85;18.81;99642.94;4996514;28;1117;-69
2022/03/14 09:18:31;;;;;;;;;;;;;;;22.33;18.35;99642.47;4996496;28;951;-70
2022/03/14 09:20:57;;;;;;;;;;;;;;;22.01;18.39;99636.84;4996470;28;1188;-69
2022/03/14 09:23:24;;;;;;;;;;;;;;;22.12;18.13;99636.84;4973092;28;1910;-68
2022/03/14 09:25:51;;;;;;;;;;;;;;;22.05;18.21;99636.84;4987410;28;1868;-71
2022/03/14 09:28:16;;;;;;;;;;;;;;;21.93;18.41;99642.97;4982565;28;1674;-69
2022/03/14 09:30:43;;;;;;;;;;;;;;;22.41;18.39;99636.75;4979387;28;1578;-70
2022/03/14 09:33:08;;;;;;;;;;;;;;;22.50;18.34;99634.28;4993639;28;1038;-69
2022/03/14 09:35:34;;;;;;;;;;;;;;;22.38;18.18;99643.25;4983581;28;1632;-70
2022/03/14 09:38:01;;;;;;;;;;;;;;;22.12;18.43;99639.69;4974529;28;1152;-69
2022/03/14 09:40:27;;;;;;;;;;;;;;;22.25;18.58;99637.22;4957761;28;1112;-69
2022/03/14 09:42:53;;;;;;;;;;;;;;;22.13;18.49;99649.03;4958055;28;1972;-69
2022/03/14 09:45:19;;;;;;;;;;;;;;;22.51;18.02;99647.25;4973842;28;1244;-70
2022/03/14 09:47:45;;;;;;;;;;;;;;;22.25;18.30;99646.53;4975867;28;1946;-70
2022/03/14 09:50:25;;;;;;;;;;;;;;;22.68;17.87;99646.34;4984163;28;1797;-72
2022/03/14 09:52:50;;;;;;;;;;;;;;;22.52;18.15;99654.53;4928075;29;1903;-70
2022/03/14 09:55:16;;;;;;;;;;;;;;;22.14;18.85;99651.44;4933950;29;1862;-71
2022/03/14 09:57:41;;;;;;;;;;;;;;;22.39;18.51;99647.72;4946591;29;1691;-69
2022/03/14 10:00:10;;;;;;;;;;;;;;;22.77;18.19;99643.88;4932811;29;1610;-69
2022/03/14 10:02:39;;;;;;;;;;;;;;;23.10;17.89;99653.03;4943549;29;1918;-69
2022/03/14 10:05:08;;;;;;;;;;;;;;;23.42;17.19;99649.19;4948125;29;1542;-71
2022/03/14 10:07:34;;;;;;;;;;;;;;;23.69;17.39;99647.34;4946016;29;1682;-71
2022/03/14 10:10:04;;;;;;;;;;;;;;;23.29;17.31;99643.97;4944652;29;1749;-69
2022/03/14 10:12:30;;;;;;;;;;;;;;;23.54;17.18;99651.50;4954535;29;1178;-71
2022/03/14 10:14:55;;;;;;;;;;;;;;;23.55;17.18;99651.06;4963013;28;2061;-69
2022/03/14 10:17:21;;;;;;;;;;;;;;;23.35;17.15;99645.16;4916393;29;1556;-68
2022/03/14 10:19:53;;;;;;;;;;;;;;;23.49;17.04;99643.44;4926760;29;1951;-68
2022/03/14 10:22:20;;;;;;;;;;;;;;;23.23;17.32;99642.81;4926240;29;1999;-70
2022/03/14 10:24:48;;;;;;;;;;;;;;;23.55;17.01;99653.13;4972025;28;1789;-69
2022/03/14 10:27:17;;;;;;;;;;;;;;;23.67;16.70;99649.78;4993331;28;1849;-68
2022/03/14 10:29:43;;;;;;;;;;;;;;;23.24;17.24;99644.44;4984970;28;1833;-68
2022/03/14 10:32:28;;;;;;;;;;;;;;;23.29;16.68;99640.34;4979422;28;1694;-69
2022/03/14 10:34:55;;;;;;;;;;;;;;;22.92;18.12;99643.84;4958046;29;1473;-70
2022/03/14 10:37:20;;;;;;;;;;;;;;;22.90;17.38;99641.44;4957885;29;1373;-68
2022/03/14 10:39:46;;;;;;;;;;;;;;;22.92;17.57;99641.00;4958000;29;1583;-69
2022/03/14 10:42:12;;;;;;;;;;;;;;;23.33;17.12;99636.25;4958446;29;1914;-70
2022/03/14 10:44:38;;;;;;;;;;;;;;;22.90;17.32;99640.59;4958436;29;1044;-69
2022/03/14 10:47:05;;;;;;;;;;;;;;;23.35;17.53;99639.47;4958301;29;1062;-72
2022/03/14 10:49:31;;;;;;;;;;;;;;;23.39;17.08;99643.09;4938764;29;1951;-69
2022/03/14 10:51:58;;;;;;;;;;;;;;;22.69;17.55;99639.47;4938695;29;1070;-70
2022/03/14 10:54:23;;;;;;;;;;;;;;;22.52;17.86;99643.19;4923258;29;1232;-69
2022/03/14 10:57:04;;;;;;;;;;;;;;;22.57;17.45;99635.06;4938165;29;992;-69
2022/03/14 10:59:45;;;;;;;;;;;;;;;22.18;18.07;99648.59;4938878;29;1024;-73
2022/03/14 11:02:11;;;;;;;;;;;;;;;22.06;18.01;99638.44;4938973;29;1972;-74
2022/03/14 11:05:05;;;;;;;;;;;;;;;22.36;18.07;99640.81;4912330;29;1023;-74
2022/03/14 11:07:31;;;;;;;;;;;;;;;22.00;18.50;99640.09;4900656;29;1167;-76
2022/03/14 11:09:58;;;;;;;;;;;;;;;22.17;18.14;99638.44;4900897;29;985;-76
2022/03/14 11:12:24;;;;;;;;;;;;;;;22.04;18.13;99640.91;4885044;29;1046;-76
2022/03/14 11:14:51;;;;;;;;;;;;;;;21.54;18.76;99630.44;4881678;29;1003;-75
2022/03/14 11:17:17;;;;;;;;;;;;;;;21.70;18.45;99638.53;4882378;29;1048;-76
2022/03/14 11:19:43;;;;;;;;;;;;;;;22.08;18.20;99636.03;4862890;29;1040;-75
2022/03/14 11:22:12;;;;;;;;;;;;;;;21.51;18.77;99636.13;4863088;29;1981;-75
2022/03/14 11:24:56;;;;;;;;;;;;;;;21.78;18.61;99634.47;4863034;29;1004;-76
2022/03/14 11:27:22;;;;;;;;;;;;;;;21.66;18.47;99626.41;4851154;29;992;-76
2022/03/14 11:29:48;;;;;;;;;;;;;;;22.12;18.06;99636.84;4844457;29;1061;-76
2022/03/14 11:32:14;;;;;;;;;;;;;;;22.10;17.92;99630.75;4844891;29;1050;-76
2022/03/14 11:34:39;;;;;;;;;;;;;;;22.12;18.17;99628.34;4861690;29;1074;-76
2022/03/14 11:37:06;;;;;;;;;;;;;;;21.63;18.50;99629.22;4863187;29;1154;-75
2022/03/14 11:39:32;;;;;;;;;;;;;;;21.72;18.52;99630.44;4863131;29;1091;-76
2022/03/14 11:41:59;;;;;;;;;;;;;;;21.68;18.26;99623.16;4862936;29;1976;-75
2022/03/14 11:44:24;;;;;;;;;;;;;;;21.82;18.43;99629.63;4894059;29;936;-75
2022/03/14 11:46:50;;;;;;;;;;;;;;;21.72;18.71;99619.09;4936450;29;958;-76
2022/03/14 11:49:15;;;;;;;;;;;;;;;21.61;18.42;99623.97;4956563;29;1735;-76
2022/03/14 11:51:44;;;;;;;;;;;;;;;22.03;18.22;99622.28;4951266;29;1674;-76
2022/03/14 11:54:11;;;;;;;;;;;;;;;21.62;18.48;99607.78;4946678;29;1710;-76
2022/03/14 11:56:39;;;;;;;;;;;;;;;22.14;18.07;99616.59;4972983;28;1564;-76
2022/03/14 11:59:08;;;;;;;;;;;;;;;21.78;18.49;99614.63;4958402;28;1567;-76
2022/03/14 12:01:34;;;;;;;;;;;;;;;21.97;18.06;99612.59;4956996;28;1989;-76
2022/03/14 12:04:00;;;;;;;;;;;;;;;22.24;17.81;99619.41;4956948;29;992;-76
2022/03/14 12:06:44;;;;;;;;;;;;;;;21.97;18.16;99621.09;4957224;29;1104;-77
2022/03/14 12:09:09;;;;;;;;;;;;;;;22.33;17.60;99616.16;4956752;29;958;-74
2022/03/14 12:11:38;;;;;;;;;;;;;;;22.37;17.58;99625.41;4937596;29;1130;-78
2022/03/14 12:14:04;;;;;;;;;;;;;;;22.26;18.05;99624.66;4937832;29;993;-75
2022/03/14 12:16:40;;;;;;;;;;;;;;;22.06;17.94;99621.44;4937519;29;1364;-75
2022/03/14 12:19:24;;;;;;;;;;;;;;;21.97;18.26;99623.91;4937787;29;1003;-75
2022/03/14 12:21:52;;;;;;;;;;;;;;;22.13;17.75;99627.16;4937472;29;1989;-75
2022/03/14 12:24:21;;;;;;;;;;;;;;;21.93;18.09;99623.13;4937500;29;1025;-75
2022/03/14 12:26:46;;;;;;;;;;;;;;;21.89;17.99;99622.31;4924377;29;1221;-75
2022/03/14 12:29:34;;;;;;;;;;;;;;;21.64;18.41;99622.34;4959693;28;1096;-75
2022/03/14 12:32:18;;;;;;;;;;;;;;;21.77;18.27;99621.53;4975644;28;914;-75
2022/03/14 12:34:43;;;;;;;;;;;;;;;21.63;18.24;99624.38;4975726;28;1243;-75
2022/03/14 12:37:35;;;;;;;;;;;;;;;21.87;18.17;99630.41;4975484;28;950;-75
2022/03/14 12:40:04;;;;;;;;;;;;;;;21.72;17.99;99627.59;4956415;29;1325;-75
2022/03/14 12:42:36;;;;;;;;;;;;;;;21.73;18.43;99631.25;4917812;29;1903;-75
2022/03/14 12:45:20;;;;;;;;;;;;;;;21.69;18.10;99625.56;4902768;29;1064;-75
2022/03/14 12:47:49;;;;;;;;;;;;;;;21.63;18.37;99632.88;4917187;29;1008;-75
2022/03/14 12:50:34;;;;;;;;;;;;;;;21.51;18.44;99636.13;4913821;29;1748;-75
2022/03/14 12:53:00;;;;;;;;;;;;;;;21.39;18.73;99631.66;4880554;29;1047;-75
2022/03/14 12:55:25;;;;;;;;;;;;;;;21.33;18.46;99628.41;4880191;29;1184;-75
2022/03/14 12:57:54;;;;;;;;;;;;;;;21.43;18.46;99634.50;4891086;29;1579;-75